createdAt,value
2023-04-11T00:00:47.535Z,509.00
2023-04-11T00:01:47.586Z,514.00
2023-04-11T00:02:47.742Z,511.00
2023-04-11T00:03:47.631Z,509.00
2023-04-11T00:04:47.538Z,512.00
2023-04-11T00:05:47.536Z,508.00
2023-04-11T00:06:47.506Z,509.00
2023-04-11T00:07:47.511Z,505.00
2023-04-11T00:08:47.469Z,506.00
2023-04-11T00:09:47.476Z,510.00
2023-04-11T00:10:47.459Z,513.00
2023-04-11T00:11:47.491Z,513.00
2023-04-11T00:12:47.454Z,512.00
2023-04-11T00:13:47.457Z,509.00
2023-04-11T00:14:47.422Z,513.00
2023-04-11T00:15:47.463Z,508.00
2023-04-11T00:16:47.478Z,513.00
2023-04-11T00:17:47.465Z,513.00
2023-04-11T00:18:47.434Z,508.00
2023-04-11T00:19:47.392Z,508.00
2023-04-11T00:20:47.419Z,509.00
2023-04-11T00:21:47.400Z,509.00
2023-04-11T00:22:47.394Z,507.00
2023-04-11T00:23:47.390Z,507.00
2023-04-11T00:24:47.388Z,504.00
2023-04-11T00:25:47.356Z,509.00
2023-04-11T00:26:47.359Z,510.00
2023-04-11T00:27:47.384Z,509.00
2023-04-11T00:28:47.357Z,509.00
2023-04-11T00:29:47.349Z,509.00
2023-04-11T00:30:47.350Z,507.00
2023-04-11T00:31:47.412Z,504.00
2023-04-11T00:32:47.437Z,506.00
2023-04-11T00:33:47.489Z,512.00
2023-04-11T00:34:47.539Z,507.00
2023-04-11T00:35:47.624Z,510.00
2023-04-11T00:36:47.626Z,509.00
2023-04-11T00:37:47.675Z,512.00
2023-04-11T00:38:47.721Z,511.00
2023-04-11T00:39:47.764Z,511.00
2023-04-11T00:40:47.848Z,509.00
2023-04-11T00:41:47.886Z,512.00
2023-04-11T00:42:47.966Z,513.00
2023-04-11T00:43:47.960Z,513.00
2023-04-11T00:44:48.017Z,514.00
2023-04-11T00:45:48.105Z,509.00
2023-04-11T00:46:48.152Z,507.00
2023-04-11T00:47:48.254Z,514.00
2023-04-11T00:48:48.252Z,506.00
2023-04-11T00:49:48.310Z,509.00
2023-04-11T00:50:48.309Z,506.00
2023-04-11T00:51:48.385Z,507.00
2023-04-11T00:52:48.419Z,512.00
2023-04-11T00:53:48.562Z,511.00
2023-04-11T00:54:48.464Z,506.00
2023-04-11T00:55:48.491Z,506.00
2023-04-11T00:56:48.537Z,506.00
2023-04-11T00:57:48.556Z,509.00
2023-04-11T00:58:48.612Z,509.00
2023-04-11T00:59:48.644Z,507.00
2023-04-11T01:00:48.649Z,509.00
2023-04-11T01:01:48.748Z,507.00
2023-04-11T01:02:48.769Z,511.00
2023-04-11T01:03:48.868Z,510.00
2023-04-11T01:04:48.801Z,507.00
2023-04-11T01:05:48.883Z,514.00
2023-04-11T01:06:48.942Z,513.00
2023-04-11T01:07:48.957Z,504.00
2023-04-11T01:08:49.010Z,510.00
2023-04-11T01:09:49.066Z,509.00
2023-04-11T01:10:49.110Z,505.00
2023-04-11T01:11:49.187Z,506.00
2023-04-11T01:12:49.209Z,504.00
2023-04-11T01:13:49.301Z,503.00
2023-04-11T01:14:49.306Z,507.00
2023-04-11T01:15:49.355Z,501.00
2023-04-11T01:16:49.447Z,503.00
2023-04-11T01:17:49.501Z,508.00
2023-04-11T01:18:49.530Z,506.00
2023-04-11T01:19:49.598Z,510.00
2023-04-11T01:20:49.636Z,508.00
2023-04-11T01:21:49.713Z,504.00
2023-04-11T01:22:49.766Z,508.00
2023-04-11T01:23:49.774Z,510.00
2023-04-11T01:24:49.845Z,507.00
2023-04-11T01:25:49.946Z,507.00
2023-04-11T01:26:50.014Z,510.00
2023-04-11T01:27:50.033Z,506.00
2023-04-11T01:28:50.089Z,511.00
2023-04-11T01:29:50.145Z,504.00
2023-04-11T01:30:50.221Z,509.00
2023-04-11T01:31:50.228Z,509.00
2023-04-11T01:32:50.315Z,507.00
2023-04-11T01:33:50.341Z,503.00
2023-04-11T01:34:50.418Z,506.00
2023-04-11T01:35:50.517Z,509.00
2023-04-11T01:36:50.495Z,507.00
2023-04-11T01:37:50.543Z,509.00
2023-04-11T01:38:50.624Z,516.00
2023-04-11T01:39:50.705Z,506.00
2023-04-11T01:40:50.749Z,511.00
2023-04-11T01:41:50.824Z,509.00
2023-04-11T01:42:50.862Z,506.00
2023-04-11T01:43:50.888Z,505.00
2023-04-11T01:44:50.927Z,504.00
2023-04-11T01:45:51.032Z,510.00
2023-04-11T01:46:51.085Z,505.00
2023-04-11T01:47:51.209Z,508.00
2023-04-11T01:48:51.197Z,509.00
2023-04-11T01:49:51.241Z,506.00
2023-04-11T01:50:51.292Z,511.00
2023-04-11T01:51:51.361Z,506.00
2023-04-11T01:52:51.406Z,509.00
2023-04-11T01:53:51.467Z,509.00
2023-04-11T01:54:51.514Z,508.00
2023-04-11T01:55:51.547Z,510.00
2023-04-11T01:56:51.647Z,507.00
2023-04-11T01:57:51.667Z,508.00
2023-04-11T01:58:51.756Z,507.00
2023-04-11T01:59:51.778Z,513.00
2023-04-11T02:00:51.857Z,508.00
2023-04-11T02:01:51.964Z,509.00
2023-04-11T02:02:52.110Z,511.00
2023-04-11T02:03:52.065Z,511.00
2023-04-11T02:04:52.103Z,508.00
2023-04-11T02:05:52.122Z,506.00
2023-04-11T02:06:52.217Z,507.00
2023-04-11T02:07:52.262Z,505.00
2023-04-11T02:08:52.450Z,510.00
2023-04-11T02:09:52.325Z,507.00
2023-04-11T02:10:52.405Z,506.00
2023-04-11T02:11:52.449Z,512.00
2023-04-11T02:12:52.517Z,511.00
2023-04-11T02:13:52.564Z,505.00
2023-04-11T02:14:52.603Z,508.00
2023-04-11T02:15:52.762Z,513.00
2023-04-11T02:16:52.746Z,508.00
2023-04-11T02:17:52.821Z,510.00
2023-04-11T02:18:52.829Z,504.00
2023-04-11T02:19:52.879Z,510.00
2023-04-11T02:20:52.921Z,507.00
2023-04-11T02:21:52.967Z,509.00
2023-04-11T02:22:53.036Z,511.00
2023-04-11T02:23:53.068Z,504.00
2023-04-11T02:24:53.148Z,512.00
2023-04-11T02:25:53.293Z,506.00
2023-04-11T02:26:53.258Z,505.00
2023-04-11T02:27:53.325Z,508.00
2023-04-11T02:28:53.467Z,509.00
2023-04-11T02:29:53.456Z,513.00
2023-04-11T02:30:53.514Z,507.00
2023-04-11T02:31:53.609Z,511.00
2023-04-11T02:32:53.624Z,506.00
2023-04-11T02:33:53.667Z,509.00
2023-04-11T02:34:53.673Z,515.00
2023-04-11T02:35:53.774Z,507.00
2023-04-11T02:36:53.761Z,513.00
2023-04-11T02:37:53.828Z,508.00
2023-04-11T02:38:54.067Z,510.00
2023-04-11T02:39:53.926Z,510.00
2023-04-11T02:40:54.005Z,513.00
2023-04-11T02:41:54.060Z,511.00
2023-04-11T02:42:54.094Z,508.00
2023-04-11T02:43:54.135Z,509.00
2023-04-11T02:44:54.187Z,512.00
2023-04-11T02:45:59.236Z,514.00
2023-04-11T02:46:55.311Z,514.00
2023-04-11T02:47:54.311Z,513.00
2023-04-11T02:48:54.412Z,514.00
2023-04-11T02:49:54.229Z,515.00
2023-04-11T02:50:54.239Z,510.00
2023-04-11T02:51:54.242Z,514.00
2023-04-11T02:52:54.206Z,514.00
2023-04-11T02:53:54.198Z,515.00
2023-04-11T02:54:54.210Z,514.00
2023-04-11T02:55:54.240Z,514.00
2023-04-11T02:56:54.315Z,508.00
2023-04-11T02:57:54.344Z,517.00
2023-04-11T02:58:54.780Z,510.00
2023-04-11T02:59:54.499Z,508.00
2023-04-11T03:00:54.549Z,510.00
2023-04-11T03:01:54.668Z,512.00
2023-04-11T03:02:54.698Z,515.00
2023-04-11T03:03:54.733Z,511.00
2023-04-11T03:04:54.736Z,512.00
2023-04-11T03:05:54.858Z,512.00
2023-04-11T03:06:54.866Z,513.00
2023-04-11T03:07:54.934Z,512.00
2023-04-11T03:08:55.205Z,510.00
2023-04-11T03:09:55.010Z,510.00
2023-04-11T03:10:55.098Z,509.00
2023-04-11T03:11:55.153Z,515.00
2023-04-11T03:12:55.174Z,508.00
2023-04-11T03:13:55.260Z,509.00
2023-04-11T03:14:55.337Z,510.00
2023-04-11T03:15:55.427Z,517.00
2023-04-11T03:16:55.416Z,515.00
2023-04-11T03:17:55.511Z,510.00
2023-04-11T03:18:55.645Z,517.00
2023-04-11T03:19:55.609Z,518.00
2023-04-11T03:20:55.645Z,507.00
2023-04-11T03:21:55.696Z,506.00
2023-04-11T03:22:55.752Z,514.00
2023-04-11T03:23:55.812Z,508.00
2023-04-11T03:24:55.864Z,510.00
2023-04-11T03:25:55.959Z,512.00
2023-04-11T03:26:56.003Z,514.00
2023-04-11T03:27:56.052Z,514.00
2023-04-11T03:28:56.265Z,512.00
2023-04-11T03:29:56.206Z,512.00
2023-04-11T03:30:56.231Z,519.00
2023-04-11T03:31:56.302Z,510.00
2023-04-11T03:32:56.401Z,516.00
2023-04-11T03:33:56.403Z,515.00
2023-04-11T03:34:56.455Z,509.00
2023-04-11T03:35:56.632Z,516.00
2023-04-11T03:36:56.602Z,514.00
2023-04-11T03:37:56.651Z,511.00
2023-04-11T03:38:56.794Z,511.00
2023-04-11T03:39:56.789Z,508.00
2023-04-11T03:40:56.789Z,511.00
2023-04-11T03:41:56.895Z,516.00
2023-04-11T03:42:56.925Z,510.00
2023-04-11T03:43:57.006Z,513.00
2023-04-11T03:44:57.043Z,512.00
2023-04-11T03:45:57.119Z,511.00
2023-04-11T03:46:57.252Z,509.00
2023-04-11T03:47:57.276Z,508.00
2023-04-11T03:48:57.553Z,510.00
2023-04-11T03:49:57.348Z,509.00
2023-04-11T03:50:57.389Z,511.00
2023-04-11T03:51:57.472Z,513.00
2023-04-11T03:52:57.522Z,518.00
2023-04-11T03:53:57.552Z,519.00
2023-04-11T03:54:57.651Z,513.00
2023-04-11T03:55:57.701Z,511.00
2023-04-11T03:56:57.761Z,509.00
2023-04-11T03:57:57.828Z,516.00
2023-04-11T03:58:57.960Z,514.00
2023-04-11T03:59:57.963Z,511.00
2023-04-11T04:00:58.022Z,511.00
2023-04-11T04:01:58.199Z,512.00
2023-04-11T04:02:58.277Z,512.00
2023-04-11T04:03:58.616Z,509.00
2023-04-11T04:04:58.199Z,513.00
2023-04-11T04:05:58.249Z,512.00
2023-04-11T04:06:58.337Z,512.00
2023-04-11T04:07:58.392Z,510.00
2023-04-11T04:08:58.460Z,508.00
2023-04-11T04:09:58.487Z,507.00
2023-04-11T04:10:58.536Z,512.00
2023-04-11T04:11:58.626Z,512.00
2023-04-11T04:12:58.640Z,511.00
2023-04-11T04:13:58.822Z,506.00
2023-04-11T04:14:58.821Z,514.00
2023-04-11T04:15:59.587Z,515.00
2023-04-11T04:16:58.920Z,520.00
2023-04-11T04:17:58.950Z,512.00
2023-04-11T04:18:58.981Z,513.00
2023-04-11T04:19:59.052Z,512.00
2023-04-11T04:20:59.075Z,516.00
2023-04-11T04:21:59.119Z,510.00
2023-04-11T04:22:59.256Z,511.00
2023-04-11T04:23:59.236Z,510.00
2023-04-11T04:24:59.301Z,514.00
2023-04-11T04:25:59.378Z,513.00
2023-04-11T04:26:59.424Z,509.00
2023-04-11T04:27:59.473Z,514.00
2023-04-11T04:28:59.547Z,517.00
2023-04-11T04:30:03.943Z,515.00
2023-04-11T04:31:00.591Z,515.00
2023-04-11T04:31:59.605Z,515.00
2023-04-11T04:32:59.615Z,514.00
2023-04-11T04:33:59.567Z,513.00
2023-04-11T04:34:59.557Z,505.00
2023-04-11T04:35:59.623Z,517.00
2023-04-11T04:36:59.575Z,515.00
2023-04-11T04:37:59.543Z,508.00
2023-04-11T04:38:59.531Z,513.00
2023-04-11T04:39:59.581Z,514.00
2023-04-11T04:40:59.663Z,514.00
2023-04-11T04:41:59.714Z,518.00
2023-04-11T04:42:59.778Z,513.00
2023-04-11T04:43:59.829Z,517.00
2023-04-11T04:44:59.874Z,509.00
2023-04-11T04:45:59.975Z,509.00
2023-04-11T04:46:59.996Z,508.00
2023-04-11T04:48:00.100Z,510.00
2023-04-11T04:49:02.204Z,514.00
2023-04-11T04:50:00.201Z,507.00
2023-04-11T04:51:00.238Z,513.00
2023-04-11T04:52:00.322Z,517.00
2023-04-11T04:53:00.324Z,511.00
2023-04-11T04:54:00.433Z,518.00
2023-04-11T04:55:00.692Z,507.00
2023-04-11T04:56:00.494Z,507.00
2023-04-11T04:57:00.618Z,507.00
2023-04-11T04:58:00.629Z,506.00
2023-04-11T04:59:00.673Z,509.00
2023-04-11T05:00:00.745Z,509.00
2023-04-11T05:01:00.802Z,503.00
2023-04-11T05:02:00.936Z,507.00
2023-04-11T05:03:01.014Z,510.00
2023-04-11T05:04:01.489Z,505.00
2023-04-11T05:05:01.031Z,504.00
2023-04-11T05:06:01.145Z,509.00
2023-04-11T05:07:01.204Z,506.00
2023-04-11T05:08:01.255Z,512.00
2023-04-11T05:09:01.324Z,505.00
2023-04-11T05:10:01.482Z,509.00
2023-04-11T05:11:01.416Z,508.00
2023-04-11T05:12:01.554Z,518.00
2023-04-11T05:13:01.546Z,507.00
2023-04-11T05:14:01.615Z,509.00
2023-04-11T05:15:01.622Z,501.00
2023-04-11T05:16:01.666Z,508.00
2023-04-11T05:17:01.791Z,506.00
2023-04-11T05:18:01.815Z,508.00
2023-04-11T05:19:01.939Z,516.00
2023-04-11T05:20:01.911Z,507.00
2023-04-11T05:21:02.009Z,507.00
2023-04-11T05:22:02.060Z,501.00
2023-04-11T05:23:02.076Z,507.00
2023-04-11T05:24:02.138Z,509.00
2023-04-11T05:25:02.268Z,509.00
2023-04-11T05:26:02.246Z,505.00
2023-04-11T05:27:02.381Z,514.00
2023-04-11T05:28:02.458Z,515.00
2023-04-11T05:29:02.485Z,508.00
2023-04-11T05:30:02.515Z,513.00
2023-04-11T05:31:02.617Z,513.00
2023-04-11T05:32:02.694Z,509.00
2023-04-11T05:33:02.691Z,510.00
2023-04-11T05:34:02.765Z,512.00
2023-04-11T05:35:02.834Z,517.00
2023-04-11T05:36:02.943Z,517.00
2023-04-11T05:37:03.250Z,523.00
2023-04-11T05:38:03.018Z,521.00
2023-04-11T05:39:03.066Z,533.00
2023-04-11T05:40:04.732Z,540.00
2023-04-11T05:41:04.213Z,539.00
2023-04-11T05:42:03.232Z,554.00
2023-04-11T05:43:03.304Z,596.00
2023-04-11T05:44:03.468Z,629.00
2023-04-11T05:45:03.318Z,644.00
2023-04-11T05:46:10.344Z,660.00
2023-04-11T05:47:03.746Z,661.00
2023-04-11T05:48:03.369Z,669.00
2023-04-11T05:49:03.359Z,706.00
2023-04-11T05:50:03.330Z,761.00
2023-04-11T05:51:03.311Z,827.00
2023-04-11T05:52:03.273Z,849.00
2023-04-11T05:53:03.774Z,853.00
2023-04-11T05:54:03.284Z,854.00
2023-04-11T05:55:03.305Z,860.00
2023-04-11T05:56:03.356Z,867.00
2023-04-11T05:57:03.405Z,879.00
2023-04-11T05:58:03.756Z,952.00
2023-04-11T05:59:04.224Z,980.00
2023-04-11T06:00:03.420Z,990.00
2023-04-11T06:01:03.431Z,1024.00
2023-04-11T06:02:03.547Z,1060.00
2023-04-11T06:03:03.558Z,1099.00
2023-04-11T06:04:03.654Z,1139.00
2023-04-11T06:05:04.240Z,1156.00
2023-04-11T06:06:03.494Z,1174.00
2023-04-11T06:07:03.527Z,1216.00
2023-04-11T06:08:03.524Z,1231.00
2023-04-11T06:09:03.550Z,1299.00
2023-04-11T06:10:03.575Z,1314.00
2023-04-11T06:11:03.588Z,1345.00
2023-04-11T06:12:03.596Z,1373.00
2023-04-11T06:13:03.591Z,1435.00
2023-04-11T06:14:03.591Z,1453.00
2023-04-11T06:15:03.647Z,1491.00
2023-04-11T06:16:03.685Z,1513.00
2023-04-11T06:17:03.640Z,1564.00
2023-04-11T06:18:03.658Z,1603.00
2023-04-11T06:19:03.674Z,1647.00
2023-04-11T06:20:05.464Z,1678.00
2023-04-11T06:21:03.662Z,1722.00
2023-04-11T06:22:03.668Z,1770.00
2023-04-11T06:23:03.676Z,1772.00
2023-04-11T06:24:03.670Z,1798.00
2023-04-11T06:25:03.676Z,1851.00
2023-04-11T06:26:03.640Z,1870.00
2023-04-11T06:27:03.646Z,1901.00
2023-04-11T06:28:03.809Z,1912.00
2023-04-11T06:29:03.718Z,1946.00
2023-04-11T06:30:03.758Z,1975.00
2023-04-11T06:31:03.859Z,1989.00
2023-04-11T06:32:03.728Z,2013.00
2023-04-11T06:33:03.810Z,2034.00
2023-04-11T06:34:03.807Z,2050.00
2023-04-11T06:35:03.869Z,2081.00
2023-04-11T06:36:05.997Z,2093.00
2023-04-11T06:37:03.995Z,2103.00
2023-04-11T06:38:04.038Z,2138.00
2023-04-11T06:39:04.092Z,2183.00
2023-04-11T06:40:04.174Z,2178.00
2023-04-11T06:41:04.188Z,2157.00
2023-04-11T06:42:04.267Z,2034.00
2023-04-11T06:43:04.793Z,1919.00
2023-04-11T06:44:04.319Z,1695.00
2023-04-11T06:45:04.287Z,1563.00
2023-04-11T06:46:04.299Z,1602.00
2023-04-11T06:47:04.342Z,1620.00
2023-04-11T06:48:04.919Z,1631.00
2023-04-11T06:49:04.488Z,1601.00
2023-04-11T06:50:04.300Z,1597.00
2023-04-11T06:51:05.289Z,1574.00
2023-04-11T06:52:05.316Z,1574.00
2023-04-11T06:53:04.335Z,1468.00
2023-04-11T06:54:04.303Z,1427.00
2023-04-11T06:55:04.305Z,1381.00
2023-04-11T06:56:04.302Z,1339.00
2023-04-11T06:57:04.313Z,1346.00
2023-04-11T06:58:04.747Z,1290.00
2023-04-11T06:59:04.276Z,1193.00
2023-04-11T07:00:04.278Z,1175.00
2023-04-11T07:01:04.490Z,1161.00
2023-04-11T07:02:04.324Z,1128.00
2023-04-11T07:03:04.381Z,1101.00
2023-04-11T07:04:04.300Z,1061.00
2023-04-11T07:05:04.265Z,1044.00
2023-04-11T07:06:04.216Z,1014.00
2023-04-11T07:07:04.229Z,999.00
2023-04-11T07:08:04.214Z,975.00
2023-04-11T07:09:04.244Z,991.00
2023-04-11T07:10:04.207Z,1015.00
2023-04-11T07:11:04.203Z,1072.00
2023-04-11T07:12:04.228Z,1149.00
2023-04-11T07:13:04.230Z,1170.00
2023-04-11T07:14:04.177Z,1197.00
2023-04-11T07:15:04.211Z,1230.00
2023-04-11T07:16:04.241Z,1258.00
2023-04-11T07:17:04.223Z,1292.00
2023-04-11T07:18:04.128Z,1315.00
2023-04-11T07:19:04.128Z,1348.00
2023-04-11T07:20:04.132Z,1379.00
2023-04-11T07:21:04.111Z,1409.00
2023-04-11T07:22:04.130Z,1451.00
2023-04-11T07:23:04.258Z,1469.00
2023-04-11T07:24:04.082Z,1494.00
2023-04-11T07:25:04.076Z,1566.00
2023-04-11T07:26:04.100Z,1629.00
2023-04-11T07:27:04.110Z,1649.00
2023-04-11T07:28:04.095Z,1704.00
2023-04-11T07:29:04.101Z,1726.00
2023-04-11T07:30:04.094Z,1764.00
2023-04-11T07:31:04.153Z,1770.00
2023-04-11T07:32:04.186Z,1818.00
2023-04-11T07:33:04.300Z,1843.00
2023-04-11T07:34:04.079Z,1875.00
2023-04-11T07:35:04.140Z,1910.00
2023-04-11T07:36:04.256Z,1928.00
2023-04-11T07:37:04.235Z,1953.00
2023-04-11T07:38:04.301Z,1975.00
2023-04-11T07:39:04.377Z,1972.00
2023-04-11T07:40:05.280Z,1930.00
2023-04-11T07:41:04.526Z,1859.00
2023-04-11T07:42:04.494Z,1807.00
2023-04-11T07:43:04.740Z,1700.00
2023-04-11T07:44:04.551Z,1522.00
2023-04-11T07:45:04.609Z,1531.00
2023-04-11T07:46:04.545Z,1470.00
2023-04-11T07:47:04.551Z,1457.00
2023-04-11T07:48:04.588Z,1465.00
2023-04-11T07:49:04.583Z,1372.00
2023-04-11T07:50:04.535Z,1424.00
2023-04-11T07:51:04.545Z,1409.00
2023-04-11T07:52:04.533Z,1333.00
2023-04-11T07:53:04.515Z,1372.00
2023-04-11T07:54:04.538Z,1382.00
2023-04-11T07:55:04.536Z,1247.00
2023-04-11T07:56:04.508Z,1220.00
2023-04-11T07:57:04.546Z,1136.00
2023-04-11T07:58:04.515Z,1104.00
2023-04-11T07:59:04.499Z,1190.00
2023-04-11T08:00:04.537Z,1186.00
2023-04-11T08:01:04.528Z,1207.00
2023-04-11T08:02:04.671Z,1059.00
2023-04-11T08:03:04.642Z,1022.00
2023-04-11T08:04:05.059Z,1040.00
2023-04-11T08:05:04.712Z,1086.00
2023-04-11T08:06:04.482Z,1023.00
2023-04-11T08:07:04.522Z,1022.00
2023-04-11T08:08:04.527Z,1060.00
2023-04-11T08:09:04.535Z,1069.00
2023-04-11T08:10:04.526Z,1048.00
2023-04-11T08:11:04.530Z,1075.00
2023-04-11T08:12:04.569Z,1086.00
2023-04-11T08:13:04.526Z,1068.00
2023-04-11T08:14:04.502Z,1024.00
2023-04-11T08:15:04.580Z,1049.00
2023-04-11T08:16:04.514Z,1066.00
2023-04-11T08:17:09.980Z,1119.00
2023-04-11T08:18:05.575Z,1121.00
2023-04-11T08:19:04.505Z,1122.00
2023-04-11T08:20:04.506Z,1128.00
2023-04-11T08:21:04.517Z,1108.00
2023-04-11T08:22:04.466Z,1075.00
2023-04-11T08:23:05.921Z,1137.00
2023-04-11T08:24:04.473Z,1148.00
2023-04-11T08:25:04.494Z,1158.00
2023-04-11T08:26:04.447Z,1170.00
2023-04-11T08:27:04.447Z,1182.00
2023-04-11T08:28:04.412Z,1200.00
2023-04-11T08:29:04.476Z,1197.00
2023-04-11T08:30:04.469Z,1066.00
2023-04-11T08:31:04.530Z,1056.00
2023-04-11T08:32:04.459Z,979.00
2023-04-11T08:33:04.423Z,1018.00
2023-04-11T08:34:06.911Z,999.00
2023-04-11T08:35:04.406Z,924.00
2023-04-11T08:36:04.432Z,924.00
2023-04-11T08:37:04.417Z,863.00
2023-04-11T08:38:04.427Z,840.00
2023-04-11T08:39:04.432Z,850.00
2023-04-11T08:40:04.444Z,804.00
2023-04-11T08:41:04.399Z,780.00
2023-04-11T08:42:04.401Z,751.00
2023-04-11T08:43:04.355Z,726.00
2023-04-11T08:44:04.793Z,715.00
2023-04-11T08:45:04.344Z,670.00
2023-04-11T08:46:04.397Z,662.00
2023-04-11T08:47:04.407Z,651.00
2023-04-11T08:48:04.428Z,641.00
2023-04-11T08:49:04.320Z,634.00
2023-04-11T08:50:04.344Z,634.00
2023-04-11T08:51:04.308Z,637.00
2023-04-11T08:52:04.317Z,626.00
2023-04-11T08:53:04.341Z,641.00
2023-04-11T08:54:04.281Z,655.00
2023-04-11T08:55:04.292Z,644.00
2023-04-11T08:56:04.302Z,644.00
2023-04-11T08:57:04.306Z,663.00
2023-04-11T08:58:04.269Z,666.00
2023-04-11T08:59:04.266Z,680.00
2023-04-11T09:00:04.349Z,699.00
2023-04-11T09:01:04.520Z,690.00
2023-04-11T09:02:04.408Z,682.00
2023-04-11T09:03:04.342Z,724.00
2023-04-11T09:04:05.841Z,663.00
2023-04-11T09:05:04.255Z,766.00
2023-04-11T09:06:04.329Z,684.00
2023-04-11T09:07:04.214Z,674.00
2023-04-11T09:08:04.224Z,683.00
2023-04-11T09:09:04.196Z,656.00
2023-04-11T09:10:04.244Z,656.00
2023-04-11T09:11:04.806Z,650.00
2023-04-11T09:12:04.220Z,625.00
2023-04-11T09:13:04.301Z,631.00
2023-04-11T09:14:04.213Z,670.00
2023-04-11T09:15:04.130Z,649.00
2023-04-11T09:16:04.225Z,638.00
2023-04-11T09:17:04.126Z,632.00
2023-04-11T09:18:04.210Z,604.00
2023-04-11T09:19:04.313Z,603.00
2023-04-11T09:20:04.146Z,632.00
2023-04-11T09:21:04.143Z,632.00
2023-04-11T09:22:04.170Z,607.00
2023-04-11T09:23:04.091Z,617.00
2023-04-11T09:24:04.116Z,631.00
2023-04-11T09:25:04.087Z,638.00
2023-04-11T09:26:04.096Z,646.00
2023-04-11T09:27:04.102Z,647.00
2023-04-11T09:28:04.061Z,638.00
2023-04-11T09:29:04.074Z,654.00
2023-04-11T09:30:04.086Z,663.00
2023-04-11T09:31:04.111Z,659.00
2023-04-11T09:32:04.021Z,654.00
2023-04-11T09:33:04.070Z,671.00
2023-04-11T09:34:04.052Z,622.00
2023-04-11T09:35:04.008Z,640.00
2023-04-11T09:36:04.087Z,619.00
2023-04-11T09:37:04.024Z,587.00
2023-04-11T09:38:04.118Z,616.00
2023-04-11T09:39:04.040Z,614.00
2023-04-11T09:40:05.747Z,631.00
2023-04-11T09:41:04.154Z,605.00
2023-04-11T09:42:04.087Z,611.00
2023-04-11T09:43:04.171Z,601.00
2023-04-11T09:44:04.146Z,611.00
2023-04-11T09:45:04.222Z,600.00
2023-04-11T09:46:04.265Z,611.00
2023-04-11T09:47:04.319Z,605.00
2023-04-11T09:48:04.275Z,611.00
2023-04-11T09:49:04.606Z,604.00
2023-04-11T09:50:04.342Z,567.00
2023-04-11T09:51:04.382Z,509.00
2023-04-11T09:52:04.416Z,500.00
2023-04-11T09:53:04.479Z,507.00
2023-04-11T09:54:05.243Z,512.00
2023-04-11T09:55:04.566Z,529.00
2023-04-11T09:56:04.620Z,517.00
2023-04-11T09:57:05.345Z,515.00
2023-04-11T09:58:04.675Z,522.00
2023-04-11T09:59:05.104Z,509.00
2023-04-11T10:00:04.832Z,501.00
2023-04-11T10:01:04.900Z,508.00
2023-04-11T10:02:04.961Z,498.00
2023-04-11T10:03:05.047Z,500.00
2023-04-11T10:04:04.997Z,499.00
2023-04-11T10:05:05.093Z,503.00
2023-04-11T10:06:05.149Z,498.00
2023-04-11T10:07:05.169Z,493.00
2023-04-11T10:08:05.262Z,503.00
2023-04-11T10:09:05.297Z,528.00
2023-04-11T10:10:05.460Z,518.00
2023-04-11T10:11:05.405Z,529.00
2023-04-11T10:12:05.464Z,538.00
2023-04-11T10:13:05.546Z,533.00
2023-04-11T10:14:05.594Z,531.00
2023-04-11T10:15:05.848Z,524.00
2023-04-11T10:16:05.809Z,514.00
2023-04-11T10:17:05.762Z,491.00
2023-04-11T10:18:05.873Z,504.00
2023-04-11T10:19:05.831Z,518.00
2023-04-11T10:20:05.892Z,529.00
2023-04-11T10:21:05.925Z,552.00
2023-04-11T10:22:05.953Z,548.00
2023-04-11T10:23:05.994Z,516.00
2023-04-11T10:24:06.014Z,503.00
2023-04-11T10:25:06.090Z,509.00
2023-04-11T10:26:06.078Z,511.00
2023-04-11T10:27:06.058Z,522.00
2023-04-11T10:28:06.057Z,539.00
2023-04-11T10:29:06.104Z,540.00
2023-04-11T10:30:06.106Z,545.00
2023-04-11T10:31:06.133Z,560.00
2023-04-11T10:32:06.140Z,564.00
2023-04-11T10:33:07.874Z,566.00
2023-04-11T10:34:06.096Z,556.00
2023-04-11T10:35:06.126Z,543.00
2023-04-11T10:36:06.200Z,508.00
2023-04-11T10:37:06.167Z,547.00
2023-04-11T10:38:06.207Z,565.00
2023-04-11T10:39:06.168Z,576.00
2023-04-11T10:40:06.201Z,615.00
2023-04-11T10:41:06.156Z,647.00
2023-04-11T10:42:06.156Z,656.00
2023-04-11T10:43:06.238Z,681.00
2023-04-11T10:44:06.295Z,753.00
2023-04-11T10:45:06.369Z,765.00
2023-04-11T10:46:06.369Z,811.00
2023-04-11T10:47:06.498Z,895.00
2023-04-11T10:48:06.587Z,904.00
2023-04-11T10:49:06.544Z,898.00
2023-04-11T10:50:06.895Z,948.00
2023-04-11T10:51:06.601Z,920.00
2023-04-11T10:52:06.733Z,852.00
2023-04-11T10:53:06.745Z,881.00
2023-04-11T10:54:06.773Z,886.00
2023-04-11T10:55:06.783Z,991.00
2023-04-11T10:56:06.792Z,1118.00
2023-04-11T10:57:06.909Z,1189.00
2023-04-11T10:58:06.908Z,1161.00
2023-04-11T10:59:06.947Z,1116.00
2023-04-11T11:00:06.977Z,1121.00
2023-04-11T11:01:07.069Z,1076.00
2023-04-11T11:02:07.065Z,1030.00
2023-04-11T11:03:07.155Z,961.00
2023-04-11T11:04:07.645Z,1018.00
2023-04-11T11:05:07.186Z,1129.00
2023-04-11T11:06:07.160Z,1218.00
2023-04-11T11:07:07.233Z,1208.00
2023-04-11T11:08:07.253Z,1307.00
2023-04-11T11:09:07.278Z,1306.00
2023-04-11T11:10:07.288Z,1429.00
2023-04-11T11:11:07.374Z,1464.00
2023-04-11T11:12:07.465Z,1340.00
2023-04-11T11:13:07.368Z,1421.00
2023-04-11T11:14:07.364Z,1465.00
2023-04-11T11:15:07.888Z,1445.00
2023-04-11T11:16:07.429Z,1819.00
2023-04-11T11:17:07.637Z,1807.00
2023-04-11T11:18:07.495Z,1688.00
2023-04-11T11:19:07.450Z,1424.00
2023-04-11T11:20:07.469Z,2067.00
2023-04-11T11:21:11.270Z,2082.00
2023-04-11T11:22:08.526Z,1758.00
2023-04-11T11:23:07.482Z,1806.00
2023-04-11T11:24:07.488Z,1802.00
2023-04-11T11:25:07.876Z,1918.00
2023-04-11T11:26:07.469Z,1899.00
2023-04-11T11:27:07.527Z,2041.00
2023-04-11T11:28:07.457Z,2167.00
2023-04-11T11:29:07.410Z,2205.00
2023-04-11T11:30:07.898Z,2267.00
2023-04-11T11:31:07.399Z,2277.00
2023-04-11T11:32:07.534Z,2264.00
2023-04-11T11:33:07.442Z,2275.00
2023-04-11T11:34:22.308Z,2299.00
2023-04-11T11:35:08.891Z,2300.00
2023-04-11T11:36:07.356Z,2303.00
2023-04-11T11:37:07.396Z,2310.00
2023-04-11T11:38:07.385Z,2283.00
2023-04-11T11:39:07.344Z,2314.00
2023-04-11T11:40:07.352Z,2326.00
2023-04-11T11:41:07.357Z,2319.00
2023-04-11T11:42:07.324Z,2340.00
2023-04-11T11:43:07.326Z,2333.00
2023-04-11T11:44:07.313Z,2271.00
2023-04-11T11:45:07.343Z,2265.00
2023-04-11T11:46:08.477Z,2277.00
2023-04-11T11:47:07.267Z,2284.00
2023-04-11T11:48:07.313Z,2293.00
2023-04-11T11:49:07.332Z,2258.00
2023-04-11T11:50:07.319Z,2276.00
2023-04-11T11:51:07.254Z,2257.00
2023-04-11T11:52:07.274Z,2246.00
2023-04-11T11:53:07.288Z,2270.00
2023-04-11T11:54:07.248Z,2263.00
2023-04-11T11:55:10.422Z,2255.00
2023-04-11T11:56:07.292Z,2287.00
2023-04-11T11:57:07.859Z,2233.00
2023-04-11T11:58:07.301Z,2229.00
2023-04-11T11:59:07.259Z,2186.00
2023-04-11T12:00:07.262Z,2194.00
2023-04-11T12:01:07.378Z,2204.00
2023-04-11T12:02:07.308Z,2183.00
2023-04-11T12:03:07.306Z,2210.00
2023-04-11T12:04:07.256Z,2236.00
2023-04-11T12:05:07.422Z,2191.00
2023-04-11T12:06:07.205Z,2205.00
2023-04-11T12:07:07.217Z,2228.00
2023-04-11T12:08:07.184Z,2232.00
2023-04-11T12:09:07.182Z,2219.00
2023-04-11T12:10:07.187Z,2210.00
2023-04-11T12:11:07.191Z,2175.00
2023-04-11T12:12:07.172Z,2163.00
2023-04-11T12:13:07.200Z,2149.00
2023-04-11T12:14:07.160Z,2147.00
2023-04-11T12:15:07.164Z,2160.00
2023-04-11T12:16:07.229Z,2147.00
2023-04-11T12:17:07.147Z,2129.00
2023-04-11T12:18:07.200Z,2139.00
2023-04-11T12:19:07.142Z,2123.00
2023-04-11T12:20:07.167Z,2120.00
2023-04-11T12:21:07.187Z,2147.00
2023-04-11T12:22:07.146Z,2163.00